createdAt,value
2022-09-12T00:00:51.614Z,100020.20
2022-09-12T00:06:22.347Z,100012.85
2022-09-12T00:11:27.003Z,100015.92
2022-09-12T00:16:31.672Z,100014.17
2022-09-12T00:21:36.308Z,100013.73
2022-09-12T00:26:39.275Z,100013.59
2022-09-12T00:31:41.951Z,100011.47
2022-09-12T00:36:45.086Z,100008.14
2022-09-12T00:41:47.787Z,100005.73
2022-09-12T00:46:59.506Z,100008.95
2022-09-12T00:52:21.046Z,100009.39
2022-09-12T00:57:30.078Z,100015.73
2022-09-12T01:02:32.788Z,100020.55
2022-09-12T01:07:40.045Z,100020.72
2022-09-12T01:12:43.825Z,100021.91
2022-09-12T01:17:58.687Z,100018.98
2022-09-12T01:23:31.284Z,100021.73
2022-09-12T01:28:52.308Z,100017.85
2022-09-12T01:34:26.475Z,100016.59
2022-09-12T01:40:03.391Z,100014.80
2022-09-12T01:45:39.636Z,100017.27
2022-09-12T01:51:00.467Z,100023.13
2022-09-12T01:56:26.628Z,100028.11
2022-09-12T02:01:34.017Z,100023.02
2022-09-12T02:06:56.171Z,100020.15
2022-09-12T02:12:01.533Z,100015.66
2022-09-12T02:17:13.098Z,100020.50
2022-09-12T02:22:19.942Z,100024.92
2022-09-12T02:27:30.312Z,100030.52
2022-09-12T02:32:43.660Z,100037.23
2022-09-12T02:38:05.000Z,100037.59
2022-09-12T02:43:07.888Z,100037.74
2022-09-12T02:48:23.921Z,100041.02
2022-09-12T02:53:26.818Z,100040.52
2022-09-12T02:58:32.342Z,100044.30
2022-09-12T03:03:50.241Z,100045.59
2022-09-12T03:09:33.150Z,100047.44
2022-09-12T03:14:47.852Z,100053.39
2022-09-12T03:20:19.628Z,100052.80
2022-09-12T03:25:29.400Z,100058.14
2022-09-12T03:30:37.149Z,100063.65
2022-09-12T03:35:40.524Z,100066.05
2022-09-12T03:40:43.810Z,100069.74
2022-09-12T03:45:52.016Z,100073.70
2022-09-12T03:50:54.777Z,100076.49
2022-09-12T03:55:58.302Z,100075.70
2022-09-12T04:01:01.478Z,100075.07
2022-09-12T04:06:05.042Z,100072.54
2022-09-12T04:11:11.613Z,100081.00
2022-09-12T04:16:15.716Z,100087.86
2022-09-12T04:21:22.024Z,100090.76
2022-09-12T04:26:24.754Z,100093.27
2022-09-12T04:31:27.522Z,100102.08
2022-09-12T04:36:30.349Z,100106.84
2022-09-12T04:41:35.689Z,100111.64
2022-09-12T04:46:42.617Z,100112.80
2022-09-12T04:51:46.202Z,100111.39
2022-09-12T04:56:50.607Z,100113.55
2022-09-12T05:01:53.550Z,100115.79
2022-09-12T05:06:56.352Z,100107.42
2022-09-12T05:12:04.108Z,100108.59
2022-09-12T05:17:08.196Z,100107.46
2022-09-12T05:22:10.894Z,100106.30
2022-09-12T05:27:13.565Z,100108.36
2022-09-12T05:32:16.228Z,100111.40
2022-09-12T05:37:18.988Z,100115.18
2022-09-12T05:42:22.004Z,100117.20
2022-09-12T05:47:24.903Z,100118.04
2022-09-12T05:52:27.773Z,100125.76
2022-09-12T05:57:30.518Z,100124.96
2022-09-12T06:02:35.009Z,100126.12
2022-09-12T06:07:38.583Z,100128.77
2022-09-12T06:12:41.284Z,100128.39
2022-09-12T06:17:46.416Z,100134.58
2022-09-12T06:22:55.794Z,100134.94
2022-09-12T06:27:58.751Z,100135.70
2022-09-12T06:33:01.506Z,100134.74
2022-09-12T06:38:05.410Z,100134.77
2022-09-12T06:43:08.078Z,100141.33
2022-09-12T06:48:10.738Z,100148.31
2022-09-12T06:53:13.374Z,100154.90
2022-09-12T06:58:16.310Z,100153.00
2022-09-12T07:03:19.538Z,100159.30
2022-09-12T07:08:22.208Z,100156.60
2022-09-12T07:13:25.527Z,100164.77
2022-09-12T07:18:29.424Z,100163.42
2022-09-12T07:23:32.770Z,100164.77
2022-09-12T07:28:35.986Z,100170.35
2022-09-12T07:33:40.032Z,100173.48
2022-09-12T07:38:44.136Z,100179.74
2022-09-12T07:43:48.075Z,100177.64
2022-09-12T07:48:55.778Z,100187.94
2022-09-12T07:53:58.601Z,100193.76
2022-09-12T07:59:02.405Z,100194.95
2022-09-12T08:04:05.386Z,100202.94
2022-09-12T08:09:08.371Z,100198.93
2022-09-12T08:14:11.304Z,100199.17
2022-09-12T08:19:14.220Z,100197.73
2022-09-12T08:24:17.496Z,100200.91
2022-09-12T08:29:21.066Z,100205.52
2022-09-12T08:34:27.685Z,100211.30
2022-09-12T08:39:30.885Z,100215.94
2022-09-12T08:44:53.623Z,100214.96
2022-09-12T08:50:09.025Z,100213.30
2022-09-12T08:55:27.678Z,100211.65
2022-09-12T09:00:42.796Z,100211.70
2022-09-12T09:06:02.607Z,100213.62
2022-09-12T09:11:14.616Z,100218.27
2022-09-12T09:16:48.378Z,100219.43
2022-09-12T09:21:57.486Z,100219.77
2022-09-12T09:27:41.610Z,100222.30
2022-09-12T09:32:51.151Z,100221.42
2022-09-12T09:38:18.917Z,100218.06
2022-09-12T09:43:23.976Z,100218.55
2022-09-12T09:48:33.054Z,100217.70
2022-09-12T09:53:43.262Z,100219.96
2022-09-12T09:58:46.115Z,100226.83
2022-09-12T10:03:54.264Z,100230.52
2022-09-12T10:09:14.804Z,100237.33
2022-09-12T10:14:31.380Z,100236.30
2022-09-12T10:19:40.400Z,100234.75
2022-09-12T10:24:49.222Z,100235.79
2022-09-12T10:30:00.636Z,100236.36
2022-09-12T10:35:25.556Z,100240.05
2022-09-12T10:41:03.823Z,100238.10
2022-09-12T10:46:19.867Z,100235.98
2022-09-12T10:51:25.881Z,100243.63
2022-09-12T10:56:30.984Z,100248.16
2022-09-12T11:01:45.245Z,100249.50
2022-09-12T11:07:20.796Z,100244.36
2022-09-12T11:12:35.292Z,100243.60
2022-09-12T11:17:45.112Z,100239.20
2022-09-12T11:23:17.210Z,100240.95
2022-09-12T11:28:35.894Z,100234.32
2022-09-12T11:33:56.509Z,100235.59
2022-09-12T11:39:14.673Z,100234.77
2022-09-12T11:44:21.494Z,100231.86
2022-09-12T11:49:38.586Z,100228.59
2022-09-12T11:54:59.606Z,100238.65
2022-09-12T12:00:27.807Z,100250.14
2022-09-12T12:06:01.949Z,100250.14
2022-09-12T12:11:06.534Z,100253.73
2022-09-12T12:16:31.338Z,100247.63
2022-09-12T12:21:52.254Z,100249.51
2022-09-12T12:26:58.154Z,100256.57
2022-09-12T12:32:06.528Z,100255.23
2022-09-12T12:37:21.108Z,100256.77
2022-09-12T12:42:34.558Z,100253.36
2022-09-12T12:47:37.692Z,100241.93
2022-09-12T12:52:50.639Z,100233.23
2022-09-12T12:57:56.054Z,100240.23
2022-09-12T13:03:01.543Z,100247.86
2022-09-12T13:08:19.269Z,100248.05
2022-09-12T13:14:02.082Z,100258.19
2022-09-12T13:19:08.448Z,100260.24
2022-09-12T13:24:17.142Z,100261.67
2022-09-12T13:29:22.327Z,100252.59
2022-09-12T13:34:26.301Z,100249.66
2022-09-12T13:39:35.684Z,100237.05
2022-09-12T13:44:50.934Z,100238.69
2022-09-12T13:49:54.975Z,100245.66
2022-09-12T13:54:59.579Z,100255.02
2022-09-12T14:00:07.557Z,100253.02
2022-09-12T14:05:22.417Z,100254.83
2022-09-12T14:10:39.500Z,100258.84
2022-09-12T14:15:47.492Z,100260.31
2022-09-12T14:20:53.445Z,100261.52
2022-09-12T14:26:00.004Z,100261.48
2022-09-12T14:31:10.519Z,100262.50
2022-09-12T14:36:24.493Z,100257.50
2022-09-12T14:41:34.413Z,100260.05
2022-09-12T14:46:39.216Z,100262.73
2022-09-12T14:51:51.177Z,100266.89
2022-09-12T14:56:55.583Z,100264.98
2022-09-12T15:02:13.555Z,100251.69
2022-09-12T15:07:22.837Z,100245.02
2022-09-12T15:12:25.603Z,100245.07
2022-09-12T15:17:28.506Z,100248.27
2022-09-12T15:22:33.158Z,100242.14
2022-09-12T15:27:35.864Z,100243.76
2022-09-12T15:32:40.161Z,100239.83
2022-09-12T15:37:42.803Z,100242.39
2022-09-12T15:42:45.498Z,100246.95
2022-09-12T15:47:48.300Z,100255.57
2022-09-12T15:52:51.492Z,100258.39
2022-09-12T15:57:54.512Z,100257.58
2022-09-12T16:02:57.459Z,100251.67
2022-09-12T16:08:00.408Z,100259.92
2022-09-12T16:13:04.641Z,100259.29
2022-09-12T16:18:08.075Z,100264.76
2022-09-12T16:23:13.930Z,100272.84
2022-09-12T16:28:16.570Z,100276.80
2022-09-12T16:33:19.271Z,100280.32
2022-09-12T16:38:22.604Z,100285.11
2022-09-12T16:43:25.338Z,100292.56
2022-09-12T16:48:28.049Z,100290.00
2022-09-12T16:53:35.653Z,100291.33
2022-09-12T16:58:42.069Z,100285.73
2022-09-12T17:03:45.861Z,100285.91
2022-09-12T17:08:51.063Z,100292.41
2022-09-12T17:14:11.375Z,100295.13
2022-09-12T17:19:22.328Z,100285.38
2022-09-12T17:24:25.424Z,100288.35
2022-09-12T17:29:28.743Z,100287.25
2022-09-12T17:34:31.964Z,100290.66
2022-09-12T17:39:34.597Z,100295.51
2022-09-12T17:44:37.658Z,100299.06
2022-09-12T17:49:40.678Z,100301.03
2022-09-12T17:54:43.349Z,100303.77
2022-09-12T17:59:45.977Z,100307.73
2022-09-12T18:04:48.760Z,100312.20
2022-09-12T18:09:51.715Z,100312.38
2022-09-12T18:14:54.447Z,100310.91
2022-09-12T18:19:57.133Z,100307.63
2022-09-12T18:24:59.860Z,100314.02
2022-09-12T18:30:20.611Z,100314.08
2022-09-12T18:35:24.509Z,100315.83
2022-09-12T18:40:27.135Z,100316.55
2022-09-12T18:45:29.805Z,100320.96
2022-09-12T18:50:33.322Z,100319.39
2022-09-12T18:55:36.122Z,100310.90
2022-09-12T19:00:41.110Z,100316.81
2022-09-12T19:05:43.978Z,100306.81
2022-09-12T19:10:54.868Z,100308.09
2022-09-12T19:15:59.620Z,100308.96
2022-09-12T19:21:04.061Z,100306.91
2022-09-12T19:26:08.885Z,100308.88
2022-09-12T19:31:14.296Z,100307.30
2022-09-12T19:36:43.750Z,100304.95
2022-09-12T19:41:43.012Z,100298.06
2022-09-12T19:46:45.734Z,100302.19
2022-09-12T19:51:48.535Z,100302.77
2022-09-12T19:56:51.160Z,100295.59
2022-09-12T20:01:53.946Z,100292.93
2022-09-12T20:06:56.811Z,100291.52
2022-09-12T20:11:59.441Z,100288.19
2022-09-12T20:17:02.101Z,100286.95
2022-09-12T20:22:05.156Z,100279.38
2022-09-12T20:27:08.217Z,100279.40
2022-09-12T20:32:11.565Z,100278.17
2022-09-12T20:37:14.719Z,100276.45
2022-09-12T20:42:17.355Z,100275.94
2022-09-12T20:47:20.034Z,100274.86
2022-09-12T20:52:22.684Z,100275.72
2022-09-12T20:57:25.557Z,100272.38
2022-09-12T21:02:29.990Z,100267.14
2022-09-12T21:07:32.979Z,100263.42
2022-09-12T21:12:35.585Z,100262.28
2022-09-12T21:17:38.277Z,100258.73
2022-09-12T21:22:40.973Z,100259.73
2022-09-12T21:27:43.593Z,100265.92
2022-09-12T21:32:46.377Z,100269.96
2022-09-12T21:37:52.989Z,100269.18
2022-09-12T21:42:55.760Z,100259.38
2022-09-12T21:47:58.973Z,100258.86
2022-09-12T21:53:01.654Z,100257.04
2022-09-12T21:58:04.313Z,100254.29
2022-09-12T22:03:08.271Z,100246.98
2022-09-12T22:08:11.731Z,100240.89
2022-09-12T22:13:14.409Z,100238.78
2022-09-12T22:18:17.018Z,100234.66
2022-09-12T22:23:38.039Z,100237.70
2022-09-12T22:28:41.623Z,100244.75
2022-09-12T22:33:44.976Z,100244.66
2022-09-12T22:38:47.742Z,100240.50
2022-09-12T22:43:50.570Z,100241.13
2022-09-12T22:48:55.790Z,100236.23
2022-09-12T22:53:59.178Z,100231.39
2022-09-12T22:59:02.150Z,100235.66
2022-09-12T23:04:05.461Z,100231.52
2022-09-12T23:09:08.160Z,100237.59
2022-09-12T23:14:10.830Z,100235.55
2022-09-12T23:19:13.660Z,100227.18
2022-09-12T23:24:16.436Z,100227.05
2022-09-12T23:29:19.045Z,100219.19
2022-09-12T23:34:21.752Z,100208.25
2022-09-12T23:39:24.555Z,100206.23
2022-09-12T23:44:27.247Z,100197.73
2022-09-12T23:49:30.270Z,100200.05
2022-09-12T23:54:32.959Z,100205.84
2022-09-12T23:59:35.626Z,100204.08
